createdAt,value
2018-05-12T00:02:09.830Z,2.83
2018-05-12T00:04:36.127Z,2.80
2018-05-12T00:07:02.454Z,2.80
2018-05-12T00:09:28.811Z,3.00
2018-05-12T00:11:55.259Z,2.60
2018-05-12T00:14:22.305Z,2.40
2018-05-12T00:16:48.718Z,2.70
2018-05-12T00:19:15.186Z,3.03
2018-05-12T00:21:41.618Z,2.70
2018-05-12T00:24:08.050Z,2.80
2018-05-12T00:26:34.423Z,3.10
2018-05-12T00:29:01.299Z,2.93
2018-05-12T00:31:27.643Z,3.07
2018-05-12T00:33:54.673Z,2.70
2018-05-12T00:36:21.068Z,2.80
2018-05-12T00:38:47.419Z,2.40
2018-05-12T00:41:13.875Z,3.27
2018-05-12T00:43:40.340Z,3.10
2018-05-12T00:46:06.786Z,2.90
2018-05-12T00:48:33.109Z,2.87
2018-05-12T00:51:00.157Z,2.77
2018-05-12T00:53:27.229Z,2.90
2018-05-12T00:55:53.605Z,3.07
2018-05-12T00:58:20.815Z,2.90
2018-05-12T01:00:47.073Z,2.73
2018-05-12T01:03:13.347Z,2.93
2018-05-12T01:05:39.628Z,3.10
2018-05-12T01:08:06.105Z,3.30
2018-05-12T01:10:32.373Z,3.30
2018-05-12T01:13:03.599Z,2.63
2018-05-12T01:15:45.739Z,3.67
2018-05-12T01:18:14.827Z,3.13
2018-05-12T01:20:47.169Z,3.47
2018-05-12T01:23:19.457Z,3.67
2018-05-12T01:25:51.702Z,3.37
2018-05-12T01:28:21.288Z,3.50
2018-05-12T01:30:51.671Z,3.13
2018-05-12T01:33:21.148Z,3.50
2018-05-12T01:36:02.413Z,3.30
2018-05-12T01:38:36.169Z,3.73
2018-05-12T01:41:17.397Z,3.27
2018-05-12T01:43:53.267Z,3.20
2018-05-12T01:46:21.034Z,3.40
2018-05-12T01:48:48.210Z,3.40
2018-05-12T01:51:14.628Z,3.80
2018-05-12T01:53:40.986Z,3.53
2018-05-12T01:56:07.327Z,3.33
2018-05-12T01:58:33.750Z,3.77
2018-05-12T02:01:00.079Z,4.10
2018-05-12T02:03:26.417Z,3.43
2018-05-12T02:05:52.912Z,3.30
2018-05-12T02:08:19.276Z,3.47
2018-05-12T02:10:45.609Z,3.23
2018-05-12T02:13:11.916Z,3.10
2018-05-12T02:15:38.365Z,3.20
2018-05-12T02:18:05.015Z,3.90
2018-05-12T02:20:31.893Z,3.50
2018-05-12T02:22:58.289Z,3.70
2018-05-12T02:25:25.421Z,3.60
2018-05-12T02:27:53.309Z,3.53
2018-05-12T02:30:19.858Z,3.30
2018-05-12T02:32:46.191Z,3.10
2018-05-12T02:35:12.625Z,3.20
2018-05-12T02:37:39.065Z,3.40
2018-05-12T02:40:05.369Z,3.80
2018-05-12T02:42:31.743Z,3.63
2018-05-12T02:44:58.088Z,3.33
2018-05-12T02:47:25.136Z,3.37
2018-05-12T02:49:52.225Z,3.37
2018-05-12T02:52:19.298Z,3.07
2018-05-12T02:54:45.827Z,3.70
2018-05-12T02:57:12.959Z,3.63
2018-05-12T02:59:39.898Z,3.10
2018-05-12T03:02:07.215Z,3.50
2018-05-12T03:04:33.506Z,3.50
2018-05-12T03:06:59.979Z,3.27
2018-05-12T03:09:26.299Z,3.13
2018-05-12T03:11:54.881Z,4.37
2018-05-12T03:14:21.241Z,3.37
2018-05-12T03:16:47.581Z,3.40
2018-05-12T03:19:13.965Z,3.43
2018-05-12T03:21:41.001Z,3.40
2018-05-12T03:24:07.358Z,3.43
2018-05-12T03:26:33.716Z,4.07
2018-05-12T03:29:00.053Z,3.23
2018-05-12T03:31:26.506Z,3.77
2018-05-12T03:33:52.857Z,3.17
2018-05-12T03:36:19.436Z,3.20
2018-05-12T03:38:46.079Z,3.20
2018-05-12T03:41:13.293Z,3.33
2018-05-12T03:43:39.760Z,3.40
2018-05-12T03:46:06.201Z,2.97
2018-05-12T03:48:32.632Z,3.40
2018-05-12T03:50:59.023Z,2.80
2018-05-12T03:53:26.104Z,3.43
2018-05-12T03:55:53.371Z,3.43
2018-05-12T03:58:19.714Z,3.70
2018-05-12T04:00:46.023Z,3.30
2018-05-12T04:03:12.419Z,3.40
2018-05-12T04:05:42.327Z,3.50
2018-05-12T04:08:08.745Z,3.30
2018-05-12T04:10:35.151Z,3.60
2018-05-12T04:13:03.119Z,3.30
2018-05-12T04:15:29.465Z,3.60
2018-05-12T04:17:55.835Z,3.67
2018-05-12T04:20:22.208Z,2.80
2018-05-12T04:22:48.867Z,3.60
2018-05-12T04:25:15.191Z,3.40
2018-05-12T04:27:41.583Z,3.47
2018-05-12T04:30:07.996Z,3.20
2018-05-12T04:32:34.315Z,3.30
2018-05-12T04:35:00.657Z,3.53
2018-05-12T04:37:27.037Z,3.33
2018-05-12T04:39:54.076Z,3.17
2018-05-12T04:42:20.334Z,2.93
2018-05-12T04:44:46.696Z,3.20
2018-05-12T04:47:13.006Z,3.13
2018-05-12T04:49:39.335Z,2.93
2018-05-12T04:52:05.815Z,2.90
2018-05-12T04:54:32.143Z,3.20
2018-05-12T04:56:59.263Z,3.37
2018-05-12T04:59:25.621Z,3.63
2018-05-12T05:01:52.029Z,3.63
2018-05-12T05:04:19.780Z,3.63
2018-05-12T05:06:46.543Z,3.37
2018-05-12T05:09:13.390Z,2.90
2018-05-12T05:11:39.852Z,3.00
2018-05-12T05:14:07.212Z,3.43
2018-05-12T05:16:33.799Z,3.50
2018-05-12T05:19:00.118Z,3.13
2018-05-12T05:21:29.086Z,3.20
2018-05-12T05:23:56.198Z,3.83
2018-05-12T05:26:22.728Z,3.10
2018-05-12T05:28:49.285Z,3.47
2018-05-12T05:31:16.772Z,3.40
2018-05-12T05:33:43.243Z,3.43
2018-05-12T05:36:09.744Z,2.83
2018-05-12T05:38:36.239Z,3.77
2018-05-12T05:41:02.692Z,3.13
2018-05-12T05:43:29.854Z,3.43
2018-05-12T05:45:57.180Z,2.87
2018-05-12T05:48:24.937Z,2.73
2018-05-12T05:50:52.784Z,3.10
2018-05-12T05:53:20.946Z,3.47
2018-05-12T05:55:51.052Z,3.13
2018-05-12T05:58:20.160Z,3.70
2018-05-12T06:00:48.665Z,2.87
2018-05-12T06:03:16.938Z,3.73
2018-05-12T06:05:50.259Z,2.97
2018-05-12T06:08:17.751Z,3.40
2018-05-12T06:10:46.876Z,3.33
2018-05-12T06:13:17.180Z,3.43
2018-05-12T06:15:49.665Z,3.67
2018-05-12T06:18:18.671Z,3.43
2018-05-12T06:20:45.113Z,3.33
2018-05-12T06:23:11.512Z,3.27
2018-05-12T06:25:38.020Z,2.90
2018-05-12T06:28:04.431Z,3.20
2018-05-12T06:30:30.857Z,3.17
2018-05-12T06:32:57.180Z,3.07
2018-05-12T06:35:24.303Z,2.90
2018-05-12T06:37:50.696Z,3.23
2018-05-12T06:40:17.075Z,2.93
2018-05-12T06:42:43.483Z,2.80
2018-05-12T06:45:09.834Z,2.70
2018-05-12T06:47:36.286Z,3.30
2018-05-12T06:50:02.629Z,2.73
2018-05-12T06:52:29.713Z,2.90
2018-05-12T06:54:56.044Z,2.83
2018-05-12T06:57:23.159Z,3.20
2018-05-12T06:59:50.277Z,2.80
2018-05-12T07:02:16.676Z,2.73
2018-05-12T07:04:43.003Z,3.53
2018-05-12T07:07:09.388Z,2.87
2018-05-12T07:09:36.477Z,2.77
2018-05-12T07:12:03.613Z,3.37
2018-05-12T07:14:29.967Z,2.80
2018-05-12T07:16:56.373Z,3.13
2018-05-12T07:19:22.872Z,2.73
2018-05-12T07:21:49.883Z,3.00
2018-05-12T07:24:16.163Z,2.67
2018-05-12T07:26:42.504Z,3.20
2018-05-12T07:29:08.876Z,2.97
2018-05-12T07:31:35.312Z,2.97
2018-05-12T07:34:01.689Z,2.67
2018-05-12T07:36:28.067Z,2.80
2018-05-12T07:38:55.219Z,2.90
2018-05-12T07:41:22.310Z,3.10
2018-05-12T07:43:48.798Z,2.80
2018-05-12T07:46:16.696Z,3.00
2018-05-12T07:48:47.762Z,3.17
2018-05-12T07:51:18.786Z,3.00
2018-05-12T07:53:48.092Z,2.90
2018-05-12T07:56:20.280Z,3.10
2018-05-12T07:58:50.699Z,2.80
2018-05-12T08:01:22.911Z,2.87
2018-05-12T08:03:49.355Z,2.87
2018-05-12T08:06:17.889Z,3.03
2018-05-12T08:08:50.131Z,2.70
2018-05-12T08:11:16.437Z,2.63
2018-05-12T08:13:44.880Z,2.40
2018-05-12T08:16:14.971Z,2.30
2018-05-12T08:18:53.075Z,3.17
2018-05-12T08:21:22.366Z,3.00
2018-05-12T08:23:51.637Z,3.10
2018-05-12T08:26:19.068Z,2.80
2018-05-12T08:29:01.130Z,3.03
2018-05-12T08:31:34.011Z,2.73
2018-05-12T08:34:06.549Z,2.77
2018-05-12T08:36:45.051Z,2.70
2018-05-12T08:39:17.425Z,2.60
2018-05-12T08:41:50.569Z,3.13
2018-05-12T08:44:22.873Z,2.87
2018-05-12T08:47:03.473Z,2.87
2018-05-12T08:49:35.670Z,2.83
2018-05-12T08:52:01.998Z,2.80
2018-05-12T08:54:29.156Z,2.80
2018-05-12T08:56:56.383Z,3.63
2018-05-12T08:59:23.822Z,2.57
2018-05-12T09:01:50.195Z,2.97
2018-05-12T09:04:24.529Z,2.67
2018-05-12T09:06:51.957Z,2.70
2018-05-12T09:09:19.039Z,2.55
2018-05-12T09:11:45.432Z,2.87
2018-05-12T09:14:12.259Z,2.60
2018-05-12T09:16:38.791Z,2.60
2018-05-12T09:19:05.173Z,2.85
2018-05-12T09:21:32.250Z,2.40
2018-05-12T09:23:59.030Z,2.75
2018-05-12T09:26:25.392Z,2.92
2018-05-12T09:28:51.739Z,2.30
2018-05-12T09:31:18.046Z,2.58
2018-05-12T09:33:44.861Z,2.62
2018-05-12T09:36:11.365Z,2.70
2018-05-12T09:38:39.158Z,2.58
2018-05-12T09:41:05.497Z,2.62
2018-05-12T09:43:32.037Z,2.40
2018-05-12T09:45:59.084Z,2.50
2018-05-12T09:48:26.807Z,2.70
2018-05-12T09:50:53.180Z,2.50
2018-05-12T09:53:20.438Z,2.55
2018-05-12T09:55:46.995Z,2.28
2018-05-12T09:58:13.355Z,2.33
2018-05-12T10:00:40.490Z,2.35
2018-05-12T10:03:06.848Z,2.30
2018-05-12T10:05:33.820Z,2.37
2018-05-12T10:08:00.342Z,2.78
2018-05-12T10:10:27.502Z,2.28
2018-05-12T10:12:54.650Z,2.35
2018-05-12T10:15:21.771Z,2.08
2018-05-12T10:17:48.084Z,2.30
2018-05-12T10:22:45.356Z,2.40
2018-05-12T10:25:13.044Z,2.22
2018-05-12T10:27:39.506Z,2.15
2018-05-12T10:30:05.912Z,2.22
2018-05-12T10:32:32.236Z,2.37
2018-05-12T10:34:58.572Z,2.17
2018-05-12T10:37:24.924Z,2.08
2018-05-12T10:39:51.373Z,2.40
2018-05-12T10:42:18.621Z,1.98
2018-05-12T10:44:46.043Z,2.22
2018-05-12T10:47:13.107Z,2.08
2018-05-12T10:49:40.429Z,2.50
2018-05-12T10:52:06.783Z,1.85
2018-05-12T10:54:33.128Z,1.73
2018-05-12T10:57:00.547Z,2.03
2018-05-12T10:59:26.964Z,1.95
2018-05-12T11:01:54.199Z,1.98
2018-05-12T11:04:20.561Z,1.95
2018-05-12T11:06:46.928Z,2.03
2018-05-12T11:09:14.151Z,1.75
2018-05-12T11:11:40.487Z,1.70
2018-05-12T11:14:06.916Z,2.12
2018-05-12T11:16:34.574Z,1.87
2018-05-12T11:19:01.015Z,2.30
2018-05-12T11:21:27.496Z,1.95
2018-05-12T11:23:53.782Z,1.73
2018-05-12T11:26:20.901Z,1.77
2018-05-12T11:28:48.057Z,2.08
2018-05-12T11:31:15.938Z,2.05
2018-05-12T11:33:42.698Z,1.95
2018-05-12T11:36:09.139Z,1.90
2018-05-12T11:38:35.511Z,1.80
2018-05-12T11:41:02.720Z,1.60
2018-05-12T11:43:29.116Z,1.62
2018-05-12T11:45:56.015Z,2.10
2018-05-12T11:48:22.362Z,2.37
2018-05-12T11:50:48.725Z,2.25
2018-05-12T11:53:15.834Z,3.55
2018-05-12T11:55:42.222Z,2.40
2018-05-12T11:58:08.686Z,2.05
2018-05-12T12:00:35.010Z,2.20
2018-05-12T12:03:01.383Z,1.75
2018-05-12T12:05:27.736Z,1.52
2018-05-12T12:07:54.147Z,1.90
2018-05-12T12:10:20.516Z,2.20
2018-05-12T12:12:47.597Z,2.05
2018-05-12T12:15:13.951Z,1.80
2018-05-12T12:17:40.325Z,1.80
2018-05-12T12:20:07.545Z,1.80
2018-05-12T12:22:33.913Z,2.10
2018-05-12T12:25:00.293Z,2.47
2018-05-12T12:27:26.819Z,2.20
2018-05-12T12:29:53.199Z,2.22
2018-05-12T12:32:19.623Z,2.67
2018-05-12T12:34:45.948Z,2.47
2018-05-12T12:37:12.245Z,2.22
2018-05-12T12:39:38.658Z,2.08
2018-05-12T12:42:05.713Z,2.00
2018-05-12T12:44:32.087Z,2.30
2018-05-12T12:46:58.455Z,1.55
2018-05-12T12:49:25.611Z,1.87
2018-05-12T12:51:52.685Z,2.00
2018-05-12T12:54:19.091Z,2.03
2018-05-12T12:56:45.447Z,1.98
2018-05-12T12:59:12.499Z,2.10
2018-05-12T13:01:39.571Z,1.83
2018-05-12T13:04:06.663Z,1.92
2018-05-12T13:06:33.028Z,1.80
2018-05-12T13:09:00.190Z,1.80
2018-05-12T13:11:26.563Z,2.15
2018-05-12T13:13:52.991Z,2.08
2018-05-12T13:16:19.376Z,2.20
2018-05-12T13:18:46.506Z,2.10
2018-05-12T13:21:12.806Z,2.22
2018-05-12T13:23:39.192Z,1.83
2018-05-12T13:26:06.305Z,1.95
2018-05-12T13:28:32.618Z,2.08
2018-05-12T13:30:58.954Z,2.40
2018-05-12T13:33:25.418Z,1.90
2018-05-12T13:35:51.798Z,2.03
2018-05-12T13:38:18.163Z,2.10
2018-05-12T13:40:44.553Z,1.67
2018-05-12T13:43:10.869Z,1.98
2018-05-12T13:45:37.296Z,1.98
2018-05-12T13:48:04.402Z,2.05
2018-05-12T13:50:31.599Z,2.08
2018-05-12T13:52:58.029Z,1.75
2018-05-12T13:55:24.395Z,1.70
2018-05-12T13:57:50.857Z,1.60
2018-05-12T14:00:17.227Z,2.10
2018-05-12T14:02:44.360Z,1.67
2018-05-12T14:05:10.789Z,2.00
2018-05-12T14:07:37.105Z,1.83
2018-05-12T14:10:03.560Z,1.92
2018-05-12T14:12:29.975Z,3.12
2018-05-12T14:14:56.305Z,2.65
2018-05-12T14:17:22.695Z,3.22
2018-05-12T14:19:49.083Z,3.80
2018-05-12T14:22:15.443Z,3.58
2018-05-12T14:24:42.425Z,4.32
2018-05-12T14:27:08.753Z,3.97
2018-05-12T14:29:35.902Z,4.47
2018-05-12T14:32:03.008Z,4.30
2018-05-12T14:34:29.399Z,4.80
2018-05-12T14:36:55.720Z,4.87
2018-05-12T14:39:23.200Z,4.80
2018-05-12T14:41:49.502Z,4.82
2018-05-12T14:44:15.886Z,5.18
2018-05-12T14:46:42.965Z,6.40
2018-05-12T14:49:10.081Z,5.45
2018-05-12T14:51:37.282Z,5.72
2018-05-12T14:54:03.650Z,6.10
2018-05-12T14:56:30.692Z,5.40
2018-05-12T14:58:57.093Z,6.25
2018-05-12T15:01:23.535Z,6.25
2018-05-12T15:03:49.873Z,6.40
2018-05-12T15:06:17.003Z,6.80
2018-05-12T15:08:43.426Z,7.00
2018-05-12T15:11:09.803Z,6.32
2018-05-12T15:13:36.188Z,5.57
2018-05-12T15:16:02.564Z,7.20
2018-05-12T15:18:28.876Z,5.47
2018-05-12T15:20:55.262Z,6.68
2018-05-12T15:23:22.340Z,6.40
2018-05-12T15:25:48.749Z,6.60
2018-05-12T15:28:15.890Z,7.00
2018-05-12T15:30:43.001Z,7.22
2018-05-12T15:33:10.292Z,6.55
2018-05-12T15:35:39.120Z,5.97
2018-05-12T15:38:06.362Z,5.50
2018-05-12T15:40:32.926Z,5.72
2018-05-12T15:42:59.453Z,6.82
2018-05-12T15:45:25.938Z,5.80
2018-05-12T15:47:52.274Z,6.28
2018-05-12T15:50:18.729Z,5.85
2018-05-12T15:52:45.093Z,6.12
2018-05-12T15:55:11.431Z,5.55
2018-05-12T15:57:37.904Z,5.07
2018-05-12T16:00:04.344Z,5.78
2018-05-12T16:02:30.709Z,5.03
2018-05-12T16:04:57.121Z,6.15
2018-05-12T16:07:23.581Z,5.60
2018-05-12T16:09:50.073Z,5.45
2018-05-12T16:12:17.765Z,5.62
2018-05-12T16:14:44.956Z,5.53
2018-05-12T16:17:11.311Z,5.75
2018-05-12T16:19:37.706Z,5.60
2018-05-12T16:22:04.096Z,6.12
2018-05-12T16:24:30.423Z,5.82
2018-05-12T16:26:57.533Z,6.32
2018-05-12T16:29:23.939Z,5.70
2018-05-12T16:31:51.023Z,6.25
2018-05-12T16:34:17.394Z,5.37
2018-05-12T16:36:43.864Z,6.60
2018-05-12T16:39:10.229Z,6.22
2018-05-12T16:41:36.592Z,6.47
2018-05-12T16:44:03.731Z,7.00
2018-05-12T16:46:30.104Z,7.18
2018-05-12T16:48:56.425Z,7.37
2018-05-12T16:51:22.789Z,7.25
2018-05-12T16:53:49.181Z,7.60
2018-05-12T16:56:15.591Z,7.55
2018-05-12T16:58:41.950Z,7.07
2018-05-12T17:01:09.120Z,7.15
2018-05-12T17:03:35.464Z,7.45
2018-05-12T17:06:01.856Z,7.78
2018-05-12T17:08:28.986Z,8.68
2018-05-12T17:10:55.330Z,8.57
2018-05-12T17:13:21.740Z,9.30
2018-05-12T17:15:48.153Z,8.20
2018-05-12T17:18:14.559Z,9.80
2018-05-12T17:20:40.965Z,9.52
2018-05-12T17:23:08.084Z,9.13
2018-05-12T17:25:34.422Z,8.65
2018-05-12T17:28:01.481Z,9.43
2018-05-12T17:30:27.916Z,9.73
2018-05-12T17:32:54.276Z,10.10
2018-05-12T17:35:20.629Z,9.10
2018-05-12T17:37:46.999Z,9.50
2018-05-12T17:40:13.407Z,8.23
2018-05-12T17:42:39.818Z,10.35
2018-05-12T17:45:06.250Z,9.82
2018-05-12T17:47:32.646Z,8.30
2018-05-12T17:49:58.987Z,9.23
2018-05-12T17:52:25.476Z,9.27
2018-05-12T17:54:52.560Z,8.90
2018-05-12T17:57:18.919Z,10.45
2018-05-12T17:59:46.013Z,8.45
2018-05-12T18:02:13.155Z,10.15
2018-05-12T18:04:39.547Z,9.93
2018-05-12T18:07:05.876Z,9.68
2018-05-12T18:09:32.186Z,9.35
2018-05-12T18:11:59.815Z,9.43
2018-05-12T18:14:26.552Z,10.13
2018-05-12T18:16:53.043Z,9.98
2018-05-12T18:19:19.459Z,9.65
2018-05-12T18:21:45.821Z,10.57
2018-05-12T18:24:14.009Z,10.68
2018-05-12T18:26:40.321Z,10.73
2018-05-12T18:29:06.656Z,10.93
2018-05-12T18:31:33.113Z,9.70
2018-05-12T18:33:59.521Z,9.07
2018-05-12T18:36:28.217Z,10.20
2018-05-12T18:38:56.299Z,9.77
2018-05-12T18:41:22.677Z,8.93
2018-05-12T18:43:49.823Z,9.50
2018-05-12T18:46:16.197Z,9.98
2018-05-12T18:48:42.641Z,9.13
2018-05-12T18:51:09.065Z,9.80
2018-05-12T18:53:35.404Z,9.18
2018-05-12T18:56:01.846Z,9.35
2018-05-12T18:58:28.336Z,9.23
2018-05-12T19:00:55.710Z,9.98
2018-05-12T19:03:22.891Z,7.78
2018-05-12T19:05:49.437Z,8.70
2018-05-12T19:08:16.158Z,9.93
2018-05-12T19:10:43.288Z,8.05
2018-05-12T19:13:09.658Z,9.60
2018-05-12T19:15:36.100Z,8.85
2018-05-12T19:18:02.733Z,8.77
2018-05-12T19:20:29.212Z,8.98
2018-05-12T19:22:55.597Z,8.65
2018-05-12T19:25:22.016Z,8.52
2018-05-12T19:27:49.097Z,8.38
2018-05-12T19:30:16.205Z,8.02
2018-05-12T19:32:42.897Z,8.45
2018-05-12T19:35:09.199Z,8.45
2018-05-12T19:37:35.667Z,8.50
2018-05-12T19:40:02.005Z,7.70
2018-05-12T19:42:28.431Z,8.20
2018-05-12T19:44:54.786Z,8.73
2018-05-12T19:47:21.960Z,8.40
2018-05-12T19:49:49.207Z,8.05
2018-05-12T19:52:16.329Z,7.15
2018-05-12T19:54:42.651Z,7.55
2018-05-12T19:57:08.971Z,7.10
2018-05-12T19:59:35.302Z,7.22
2018-05-12T20:02:01.581Z,7.80
2018-05-12T20:04:28.714Z,6.03
2018-05-12T20:06:55.556Z,7.22
2018-05-12T20:09:22.125Z,6.18
2018-05-12T20:11:48.540Z,6.50
2018-05-12T20:14:15.632Z,6.25
2018-05-12T20:16:43.021Z,5.62
2018-05-12T20:19:09.433Z,5.35
2018-05-12T20:21:35.732Z,5.82
2018-05-12T20:24:02.184Z,4.93
2018-05-12T20:26:28.567Z,5.37
2018-05-12T20:28:55.836Z,5.57
2018-05-12T20:31:22.225Z,5.30
2018-05-12T20:33:48.590Z,4.30
2018-05-12T20:36:14.921Z,4.82
2018-05-12T20:38:41.264Z,5.72
2018-05-12T20:41:07.666Z,5.28
2018-05-12T20:43:35.182Z,5.55
2018-05-12T20:46:04.330Z,5.80
2018-05-12T20:48:33.346Z,5.45
2018-05-12T20:51:00.036Z,5.90
2018-05-12T20:53:26.482Z,6.90
2018-05-12T20:55:52.836Z,6.30
2018-05-12T20:58:19.297Z,6.80
2018-05-12T21:00:45.889Z,5.75
2018-05-12T21:03:12.424Z,5.87
2018-05-12T21:05:38.846Z,6.45
2018-05-12T21:08:05.315Z,6.60
2018-05-12T21:10:31.751Z,6.57
2018-05-12T21:12:58.771Z,6.12
2018-05-12T21:15:25.105Z,6.40
2018-05-12T21:17:51.470Z,6.37
2018-05-12T21:20:17.810Z,6.43
2018-05-12T21:22:44.193Z,6.28
2018-05-12T21:25:10.605Z,6.65
2018-05-12T21:27:37.811Z,6.50
2018-05-12T21:30:05.255Z,6.30
2018-05-12T21:32:31.581Z,5.97
2018-05-12T21:34:58.738Z,6.55
2018-05-12T21:37:25.085Z,7.18
2018-05-12T21:39:51.519Z,7.10
2018-05-12T21:42:18.153Z,6.43
2018-05-12T21:44:45.175Z,6.68
2018-05-12T21:47:12.349Z,6.05
2018-05-12T21:49:38.694Z,6.60
2018-05-12T21:52:05.043Z,6.68
2018-05-12T21:54:31.392Z,6.37
2018-05-12T21:56:57.755Z,6.22
2018-05-12T21:59:24.100Z,5.45
2018-05-12T22:01:50.395Z,6.62
2018-05-12T22:04:16.796Z,6.07
2018-05-12T22:06:43.932Z,6.25
2018-05-12T22:09:10.392Z,6.40
2018-05-12T22:11:36.704Z,6.53
2018-05-12T22:14:03.065Z,6.57
2018-05-12T22:16:29.570Z,5.50
2018-05-12T22:18:55.939Z,6.43
2018-05-12T22:21:22.270Z,6.75
2018-05-12T22:23:49.272Z,5.72
2018-05-12T22:26:16.182Z,6.75
2018-05-12T22:28:43.404Z,5.80
2018-05-12T22:31:09.884Z,6.32
2018-05-12T22:33:37.012Z,5.80
2018-05-12T22:36:04.122Z,6.55
2018-05-12T22:38:30.558Z,6.55
2018-05-12T22:40:56.942Z,6.85
2018-05-12T22:43:24.048Z,6.78
2018-05-12T22:45:51.006Z,6.73
2018-05-12T22:48:17.430Z,6.22
2018-05-12T22:50:43.749Z,6.40
2018-05-12T22:53:10.212Z,5.80
2018-05-12T22:55:37.391Z,6.45
2018-05-12T22:58:04.526Z,6.30
2018-05-12T23:00:30.857Z,7.00
2018-05-12T23:02:57.177Z,6.82
2018-05-12T23:05:24.199Z,6.80
2018-05-12T23:07:50.605Z,5.90
2018-05-12T23:10:17.705Z,6.72
2018-05-12T23:12:44.099Z,6.50
2018-05-12T23:15:11.083Z,6.53
2018-05-12T23:17:37.455Z,6.43
2018-05-12T23:20:03.826Z,6.78
2018-05-12T23:22:30.201Z,5.67
2018-05-12T23:24:56.569Z,6.32
2018-05-12T23:27:22.938Z,6.37
2018-05-12T23:29:49.441Z,6.95
2018-05-12T23:32:15.839Z,6.33
2018-05-12T23:34:42.686Z,6.25
2018-05-12T23:37:08.998Z,6.20
2018-05-12T23:39:35.420Z,6.17
2018-05-12T23:42:01.746Z,6.33
2018-05-12T23:44:28.090Z,6.57
2018-05-12T23:46:54.497Z,6.17
2018-05-12T23:49:25.605Z,6.70
2018-05-12T23:51:53.136Z,6.62
2018-05-12T23:54:20.193Z,6.22
2018-05-12T23:56:46.709Z,6.62
2018-05-12T23:59:13.022Z,6.23
